createdAt,value
2023-03-02T00:02:22.311Z,-1.19
2023-03-02T00:04:52.641Z,-0.98
2023-03-02T00:07:22.550Z,-1.06
2023-03-02T00:09:51.890Z,-0.66
2023-03-02T00:12:19.599Z,-0.65
2023-03-02T00:14:47.319Z,-0.54
2023-03-02T00:17:14.967Z,-0.66
2023-03-02T00:19:42.651Z,-0.25
2023-03-02T00:22:11.204Z,-0.41
2023-03-02T00:24:38.958Z,-0.23
2023-03-02T00:27:08.024Z,-0.42
2023-03-02T00:29:35.671Z,-0.34
2023-03-02T00:32:04.830Z,-0.43
2023-03-02T00:34:32.937Z,-0.49
2023-03-02T00:37:00.586Z,-0.55
2023-03-02T00:39:28.301Z,-0.72
2023-03-02T00:41:56.076Z,-0.88
2023-03-02T00:44:25.144Z,-0.86
2023-03-02T00:46:52.857Z,-0.93
2023-03-02T00:49:20.750Z,-1.02
2023-03-02T00:51:48.422Z,-1.03
2023-03-02T00:54:16.143Z,-1.03
2023-03-02T00:56:44.403Z,-0.97
2023-03-02T00:59:26.280Z,-0.89
2023-03-02T01:01:58.173Z,-1.26
2023-03-02T01:04:29.789Z,-0.99
2023-03-02T01:06:57.985Z,-1.04
2023-03-02T01:09:25.966Z,-1.06
2023-03-02T01:11:53.948Z,-1.03
2023-03-02T01:14:21.691Z,-0.97
2023-03-02T01:16:50.619Z,-0.69
2023-03-02T01:19:19.697Z,-0.46
2023-03-02T01:21:47.658Z,-0.66
2023-03-02T01:24:15.348Z,-0.64
2023-03-02T01:26:43.047Z,-0.78
2023-03-02T01:29:11.634Z,-0.97
2023-03-02T01:31:39.657Z,-1.00
2023-03-02T01:34:07.383Z,-1.02
2023-03-02T01:36:36.519Z,-1.12
2023-03-02T01:39:04.696Z,-0.97
2023-03-02T01:41:32.746Z,-1.21
2023-03-02T01:44:00.552Z,-1.18
2023-03-02T01:46:30.701Z,-1.13
2023-03-02T01:49:01.850Z,-1.10
2023-03-02T01:51:32.019Z,-0.92
2023-03-02T01:54:03.734Z,-1.13
2023-03-02T01:56:36.377Z,-1.07
2023-03-02T01:59:08.277Z,-1.23
2023-03-02T02:01:37.639Z,-1.38
2023-03-02T02:04:06.048Z,-1.44
2023-03-02T02:06:36.563Z,-1.51
2023-03-02T02:09:08.281Z,-1.63
2023-03-02T02:11:36.163Z,-1.84
2023-03-02T02:14:04.207Z,-1.76
2023-03-02T02:16:34.208Z,-1.93
2023-03-02T02:19:02.494Z,-2.02
2023-03-02T02:21:30.226Z,-1.92
2023-03-02T02:24:07.772Z,-2.08
2023-03-02T02:26:38.898Z,-2.08
2023-03-02T02:29:08.106Z,-1.64
2023-03-02T02:31:39.190Z,-1.79
2023-03-02T02:34:12.496Z,-1.66
2023-03-02T02:36:42.736Z,-1.55
2023-03-02T02:39:16.427Z,-1.42
2023-03-02T02:41:47.450Z,-1.15
2023-03-02T02:44:16.362Z,-1.04
2023-03-02T02:46:44.787Z,-1.07
2023-03-02T02:49:23.195Z,-0.92
2023-03-02T02:51:50.914Z,-1.03
2023-03-02T02:54:19.816Z,-1.08
2023-03-02T02:56:50.037Z,-0.93
2023-03-02T02:59:19.374Z,-1.02
2023-03-02T03:01:47.963Z,-1.03
2023-03-02T03:04:19.365Z,-1.05
2023-03-02T03:06:52.755Z,-0.93
2023-03-02T03:09:20.707Z,-1.00
2023-03-02T03:11:51.805Z,-1.20
2023-03-02T03:14:21.476Z,-1.33
2023-03-02T03:16:51.106Z,-1.20
2023-03-02T03:19:21.444Z,-1.05
2023-03-02T03:21:51.165Z,-1.24
2023-03-02T03:24:19.114Z,-1.16
2023-03-02T03:26:47.031Z,-1.18
2023-03-02T03:29:18.595Z,-1.38
2023-03-02T03:31:46.596Z,-1.25
2023-03-02T03:34:14.291Z,-1.20
2023-03-02T03:36:43.344Z,-1.34
2023-03-02T03:39:12.093Z,-1.13
2023-03-02T03:41:39.931Z,-1.11
2023-03-02T03:44:07.765Z,-1.06
2023-03-02T03:46:37.149Z,-1.27
2023-03-02T03:49:05.548Z,-1.41
2023-03-02T03:51:35.289Z,-1.30
2023-03-02T03:54:03.300Z,-1.42
2023-03-02T03:56:33.458Z,-1.23
2023-03-02T03:59:07.389Z,-1.20
2023-03-02T04:01:38.780Z,-1.14
2023-03-02T04:04:08.880Z,-1.24
2023-03-02T04:06:37.269Z,-1.30
2023-03-02T04:09:05.748Z,-1.43
2023-03-02T04:11:34.426Z,-1.26
2023-03-02T04:14:02.473Z,-1.23
2023-03-02T04:16:30.729Z,-1.38
2023-03-02T04:19:00.537Z,-1.31
2023-03-02T04:21:28.558Z,-1.34
2023-03-02T04:23:56.610Z,-1.35
2023-03-02T04:26:26.220Z,-1.43
2023-03-02T04:28:53.919Z,-1.39
2023-03-02T04:31:21.862Z,-1.16
2023-03-02T04:33:49.617Z,-1.47
2023-03-02T04:36:19.607Z,-1.44
2023-03-02T04:38:47.402Z,-1.47
2023-03-02T04:41:15.117Z,-1.64
2023-03-02T04:43:42.909Z,-1.59
2023-03-02T04:46:11.352Z,-1.58
2023-03-02T04:48:39.102Z,-1.63
2023-03-02T04:51:07.083Z,-1.42
2023-03-02T04:53:36.198Z,-1.48
2023-03-02T04:56:04.018Z,-1.52
2023-03-02T04:58:32.128Z,-1.41
2023-03-02T05:01:02.277Z,-1.29
2023-03-02T05:03:30.163Z,-1.45
2023-03-02T05:05:57.960Z,-1.57
2023-03-02T05:08:25.628Z,-1.58
2023-03-02T05:10:54.694Z,-1.61
2023-03-02T05:13:22.537Z,-1.63
2023-03-02T05:15:51.688Z,-1.57
2023-03-02T05:18:20.005Z,-1.66
2023-03-02T05:20:48.023Z,-1.63
2023-03-02T05:23:25.261Z,-1.75
2023-03-02T05:25:56.571Z,-1.67
2023-03-02T05:28:26.002Z,-1.64
2023-03-02T05:30:53.999Z,-1.77
2023-03-02T05:33:22.281Z,-1.82
2023-03-02T05:35:50.019Z,-1.78
2023-03-02T05:38:18.183Z,-1.70
2023-03-02T05:40:46.045Z,-1.70
2023-03-02T05:43:18.640Z,-1.66
2023-03-02T05:45:46.329Z,-1.63
2023-03-02T05:48:14.621Z,-1.61
2023-03-02T05:50:43.165Z,-1.61
2023-03-02T05:53:10.884Z,-1.65
2023-03-02T05:55:38.609Z,-1.71
2023-03-02T05:58:07.487Z,-1.68
2023-03-02T06:00:36.648Z,-1.67
2023-03-02T06:03:04.454Z,-1.67
2023-03-02T06:05:32.281Z,-1.78
2023-03-02T06:08:00.014Z,-1.78
2023-03-02T06:10:28.264Z,-1.80
2023-03-02T06:12:56.716Z,-2.00
2023-03-02T06:15:24.668Z,-1.89
2023-03-02T06:17:53.739Z,-2.11
2023-03-02T06:20:21.945Z,-2.01
2023-03-02T06:22:49.831Z,-1.99
2023-03-02T06:25:20.616Z,-1.94
2023-03-02T06:27:51.044Z,-1.87
2023-03-02T06:30:22.657Z,-1.72
2023-03-02T06:32:50.824Z,-1.66
2023-03-02T06:35:20.259Z,-1.59
2023-03-02T06:37:48.091Z,-1.55
2023-03-02T06:40:15.896Z,-1.55
2023-03-02T06:42:43.924Z,-1.48
2023-03-02T06:45:12.288Z,-1.44
2023-03-02T06:47:40.028Z,-1.43
2023-03-02T06:50:08.730Z,-1.39
2023-03-02T06:52:37.844Z,-1.45
2023-03-02T06:55:06.441Z,-1.42
2023-03-02T06:57:34.701Z,-1.29
2023-03-02T07:00:06.184Z,-1.23
2023-03-02T07:02:34.391Z,-1.17
2023-03-02T07:05:02.060Z,-1.11
2023-03-02T07:07:29.706Z,-1.10
2023-03-02T07:09:58.769Z,-1.01
2023-03-02T07:12:26.521Z,-0.91
2023-03-02T07:14:54.169Z,-0.89
2023-03-02T07:17:21.873Z,-0.81
2023-03-02T07:19:49.594Z,-0.75
2023-03-02T07:22:17.234Z,-0.66
2023-03-02T07:24:45.115Z,-0.63
2023-03-02T07:27:14.177Z,-0.54
2023-03-02T07:29:41.804Z,-0.59
2023-03-02T07:32:12.323Z,-0.40
2023-03-02T07:34:40.361Z,-0.34
2023-03-02T07:37:08.083Z,-0.37
2023-03-02T07:39:35.777Z,-0.13
2023-03-02T07:42:04.502Z,-0.09
2023-03-02T07:44:33.607Z,-0.07
2023-03-02T07:47:01.432Z,0.09
2023-03-02T07:49:29.097Z,0.10
2023-03-02T07:51:56.809Z,0.21
2023-03-02T07:54:26.472Z,0.10
2023-03-02T07:56:54.191Z,0.17
2023-03-02T07:59:21.824Z,0.31
2023-03-02T08:01:50.947Z,0.26
2023-03-02T08:04:18.638Z,0.41
2023-03-02T08:06:46.350Z,0.41
2023-03-02T08:09:16.475Z,0.44
2023-03-02T08:11:44.917Z,0.44
2023-03-02T08:14:12.664Z,0.48
2023-03-02T08:16:40.804Z,0.69
2023-03-02T08:19:10.537Z,0.85
2023-03-02T08:21:38.233Z,0.91
2023-03-02T08:24:06.140Z,1.14
2023-03-02T08:26:33.831Z,1.11
2023-03-02T08:29:01.628Z,1.02
2023-03-02T08:31:29.730Z,1.31
2023-03-02T08:33:59.448Z,1.18
2023-03-02T08:36:28.514Z,1.68
2023-03-02T08:38:56.216Z,1.61
2023-03-02T08:41:24.997Z,1.56
2023-03-02T08:43:54.351Z,1.65
2023-03-02T08:46:22.533Z,1.68
2023-03-02T08:48:51.332Z,1.63
2023-03-02T08:51:21.323Z,1.81
2023-03-02T08:53:52.102Z,2.03
2023-03-02T08:56:21.169Z,1.97
2023-03-02T08:58:49.205Z,2.07
2023-03-02T09:01:19.569Z,2.30
2023-03-02T09:03:47.341Z,2.11
2023-03-02T09:06:15.552Z,2.31
2023-03-02T09:08:43.880Z,2.58
2023-03-02T09:11:12.958Z,2.60
2023-03-02T09:13:40.684Z,2.78
2023-03-02T09:16:09.492Z,2.94
2023-03-02T09:18:37.413Z,3.10
2023-03-02T09:21:05.491Z,3.07
2023-03-02T09:23:34.015Z,3.16
2023-03-02T09:26:01.823Z,2.93
2023-03-02T09:28:31.116Z,3.11
2023-03-02T09:31:01.024Z,3.52
2023-03-02T09:33:29.250Z,3.38
2023-03-02T09:35:56.987Z,3.31
2023-03-02T09:38:24.960Z,3.76
2023-03-02T09:41:08.695Z,3.93
2023-03-02T09:43:45.050Z,3.89
2023-03-02T09:46:17.372Z,3.96
2023-03-02T09:48:50.720Z,4.00
2023-03-02T09:51:32.480Z,4.16
2023-03-02T09:54:05.267Z,4.36
2023-03-02T09:56:35.690Z,4.01
2023-03-02T09:59:09.394Z,4.15
2023-03-02T10:01:40.848Z,4.54
2023-03-02T10:04:16.451Z,4.61
2023-03-02T10:06:44.251Z,4.78
2023-03-02T10:09:11.986Z,4.63
2023-03-02T10:11:47.984Z,4.69
2023-03-02T10:14:22.352Z,4.91
2023-03-02T10:16:54.981Z,5.05
2023-03-02T10:19:25.186Z,5.41
2023-03-02T10:21:55.642Z,5.05
2023-03-02T10:24:29.435Z,5.57
2023-03-02T10:27:00.528Z,5.24
2023-03-02T10:29:41.113Z,5.18
2023-03-02T10:32:16.289Z,5.57
2023-03-02T10:34:43.980Z,5.75
2023-03-02T10:37:14.488Z,5.85
2023-03-02T10:39:42.225Z,6.02
2023-03-02T10:42:15.446Z,6.05
2023-03-02T10:44:47.631Z,6.37
2023-03-02T10:47:23.735Z,6.09
2023-03-02T10:49:52.132Z,6.46
2023-03-02T10:52:21.234Z,6.33
2023-03-02T10:54:49.186Z,6.37
2023-03-02T10:57:31.104Z,6.38
2023-03-02T11:00:02.489Z,6.53
2023-03-02T11:02:31.032Z,6.52
2023-03-02T11:05:00.391Z,6.57
2023-03-02T11:07:30.215Z,6.48
2023-03-02T11:09:59.844Z,6.62
2023-03-02T11:12:27.708Z,6.63
2023-03-02T11:15:17.761Z,7.00
2023-03-02T11:17:46.690Z,6.72
2023-03-02T11:20:18.288Z,6.94
2023-03-02T11:22:49.234Z,7.33
2023-03-02T11:25:24.834Z,7.51
2023-03-02T11:27:55.871Z,7.33
2023-03-02T11:30:27.116Z,7.34
2023-03-02T11:32:59.175Z,7.26
2023-03-02T11:35:33.209Z,7.37
2023-03-02T11:38:05.701Z,7.47
2023-03-02T11:40:37.172Z,7.40
2023-03-02T11:43:05.651Z,7.50
2023-03-02T11:45:38.230Z,7.48
2023-03-02T11:48:08.247Z,7.35
2023-03-02T11:50:38.766Z,7.51
2023-03-02T11:53:11.370Z,7.61
2023-03-02T11:55:44.740Z,7.42
2023-03-02T11:58:15.593Z,7.42
2023-03-02T12:00:45.510Z,7.53
2023-03-02T12:03:22.351Z,7.66
2023-03-02T12:06:01.639Z,7.84
2023-03-02T12:08:36.823Z,7.43
2023-03-02T12:11:07.263Z,7.32
2023-03-02T12:13:36.515Z,7.66
2023-03-02T12:16:18.290Z,7.42
2023-03-02T12:18:48.851Z,7.60
2023-03-02T12:21:18.893Z,7.81
2023-03-02T12:23:59.476Z,7.93
2023-03-02T12:26:32.425Z,8.21
2023-03-02T12:29:03.500Z,8.26
2023-03-02T12:31:44.154Z,7.78
2023-03-02T12:34:35.190Z,8.02
2023-03-02T12:37:07.646Z,8.17
2023-03-02T12:39:49.317Z,8.22
2023-03-02T12:42:35.749Z,7.97
2023-03-02T12:45:06.004Z,7.99
2023-03-02T12:47:35.173Z,8.42
2023-03-02T12:50:05.854Z,8.17
2023-03-02T12:52:36.110Z,8.22
2023-03-02T12:55:07.088Z,8.32
2023-03-02T12:57:35.282Z,8.51
2023-03-02T13:00:06.592Z,8.56
2023-03-02T13:02:37.183Z,8.98
2023-03-02T13:05:07.711Z,8.83
2023-03-02T13:07:38.256Z,8.89
2023-03-02T13:10:13.800Z,9.03
2023-03-02T13:12:45.849Z,9.91
2023-03-02T13:15:17.028Z,9.05
2023-03-02T13:17:47.313Z,8.78
2023-03-02T13:20:15.768Z,9.27
2023-03-02T13:22:43.569Z,9.42
2023-03-02T13:25:23.345Z,9.13
2023-03-02T13:27:55.540Z,9.17
2023-03-02T13:30:27.172Z,9.71
2023-03-02T13:33:01.668Z,10.12
2023-03-02T13:35:31.506Z,10.19
2023-03-02T13:38:02.467Z,9.95
2023-03-02T13:40:39.070Z,9.80
2023-03-02T13:43:20.917Z,10.55
2023-03-02T13:45:53.762Z,11.23
2023-03-02T13:48:23.275Z,11.69
2023-03-02T13:50:53.892Z,11.87
2023-03-02T13:53:21.871Z,11.30
2023-03-02T13:55:50.030Z,11.76
2023-03-02T13:58:19.606Z,12.48
2023-03-02T14:00:47.343Z,12.24
2023-03-02T14:03:24.942Z,12.32
2023-03-02T14:05:53.201Z,12.27
2023-03-02T14:08:21.167Z,12.53
2023-03-02T14:10:49.336Z,13.33
2023-03-02T14:13:19.175Z,12.74
2023-03-02T14:15:49.402Z,12.00
2023-03-02T14:18:34.513Z,13.63
2023-03-02T14:21:02.489Z,12.43
2023-03-02T14:23:30.242Z,12.61
2023-03-02T14:25:58.108Z,12.16
2023-03-02T14:28:28.446Z,12.52
2023-03-02T14:30:58.153Z,12.12
2023-03-02T14:33:26.580Z,11.69
2023-03-02T14:35:57.954Z,12.52
2023-03-02T14:38:27.769Z,12.49
2023-03-02T14:40:55.541Z,12.62
2023-03-02T14:43:23.964Z,13.33
2023-03-02T14:45:53.175Z,12.03
2023-03-02T14:48:20.910Z,11.77
2023-03-02T14:50:49.867Z,11.62
2023-03-02T14:53:20.881Z,12.18
2023-03-02T14:55:48.770Z,12.49
2023-03-02T14:58:18.865Z,12.91
2023-03-02T15:00:47.342Z,12.89
2023-03-02T15:03:16.356Z,13.19
2023-03-02T15:05:58.976Z,11.93
2023-03-02T15:08:30.409Z,10.91
2023-03-02T15:10:58.192Z,11.72
2023-03-02T15:13:25.832Z,11.39
2023-03-02T15:15:53.745Z,11.51
2023-03-02T15:18:21.446Z,11.89
2023-03-02T15:20:49.090Z,12.42
2023-03-02T15:23:16.717Z,11.93
2023-03-02T15:25:45.730Z,11.84
2023-03-02T15:28:13.486Z,11.89
2023-03-02T15:30:41.738Z,10.74
2023-03-02T15:33:09.682Z,11.07
2023-03-02T15:35:39.786Z,10.57
2023-03-02T15:38:07.893Z,11.16
2023-03-02T15:40:36.847Z,10.81
2023-03-02T15:43:05.918Z,10.75
2023-03-02T15:45:33.637Z,9.93
2023-03-02T15:48:01.303Z,10.98
2023-03-02T15:50:28.931Z,9.29
2023-03-02T15:52:57.509Z,7.89
2023-03-02T15:55:25.240Z,7.67
2023-03-02T15:57:53.605Z,7.55
2023-03-02T16:00:23.508Z,7.43
2023-03-02T16:02:51.342Z,7.16
2023-03-02T16:05:19.056Z,7.19
2023-03-02T16:07:46.709Z,6.77
2023-03-02T16:10:16.469Z,6.68
2023-03-02T16:12:44.552Z,6.52
2023-03-02T16:15:12.562Z,6.56
2023-03-02T16:17:43.122Z,6.14
2023-03-02T16:20:12.270Z,5.85
2023-03-02T16:22:39.928Z,5.88
2023-03-02T16:25:08.157Z,5.57
2023-03-02T16:27:35.805Z,5.48
2023-03-02T16:30:03.578Z,5.44
2023-03-02T16:32:33.105Z,5.35
2023-03-02T16:35:02.208Z,5.23
2023-03-02T16:37:29.889Z,5.09
2023-03-02T16:39:57.548Z,4.88
2023-03-02T16:42:25.261Z,4.80
2023-03-02T16:44:53.550Z,4.62
2023-03-02T16:47:21.890Z,4.53
2023-03-02T16:49:49.509Z,4.38
2023-03-02T16:52:18.592Z,4.16
2023-03-02T16:54:46.275Z,4.04
2023-03-02T16:57:13.924Z,4.14
2023-03-02T16:59:41.733Z,3.95
2023-03-02T17:02:10.991Z,3.93
2023-03-02T17:04:38.669Z,3.73
2023-03-02T17:07:06.722Z,3.51
2023-03-02T17:09:37.406Z,3.31
2023-03-02T17:12:05.803Z,3.34
2023-03-02T17:14:33.866Z,3.09
2023-03-02T17:17:04.433Z,2.81
2023-03-02T17:19:32.071Z,2.92
2023-03-02T17:22:00.733Z,2.97
2023-03-02T17:24:29.042Z,2.71
2023-03-02T17:26:58.292Z,2.70
2023-03-02T17:29:26.789Z,2.70
2023-03-02T17:31:54.586Z,2.61
2023-03-02T17:34:22.337Z,2.49
2023-03-02T17:36:50.080Z,2.55
2023-03-02T17:39:17.730Z,2.36
2023-03-02T17:41:45.367Z,2.38
2023-03-02T17:44:14.465Z,2.23
2023-03-02T17:46:43.797Z,2.16
2023-03-02T17:49:11.415Z,2.16
2023-03-02T17:51:39.110Z,2.09
2023-03-02T17:54:07.016Z,2.18
2023-03-02T17:56:34.666Z,2.19
2023-03-02T17:59:05.077Z,2.28
2023-03-02T18:01:34.869Z,2.43
2023-03-02T18:04:02.543Z,2.52
2023-03-02T18:06:30.243Z,2.46
2023-03-02T18:08:57.866Z,2.44
2023-03-02T18:11:26.867Z,2.50
2023-03-02T18:13:55.891Z,2.36
2023-03-02T18:16:24.092Z,2.26
2023-03-02T18:18:54.118Z,2.10
2023-03-02T18:21:22.660Z,2.06
2023-03-02T18:23:50.366Z,2.16
2023-03-02T18:26:18.329Z,2.07
2023-03-02T18:28:45.982Z,1.79
2023-03-02T18:31:15.716Z,2.06
2023-03-02T18:33:43.442Z,1.97
2023-03-02T18:36:12.580Z,2.11
2023-03-02T18:38:40.217Z,2.06
2023-03-02T18:41:09.311Z,2.18
2023-03-02T18:43:40.489Z,2.13
2023-03-02T18:46:10.412Z,2.05
2023-03-02T18:48:39.557Z,1.96
2023-03-02T18:54:36.725Z,2.13
2023-03-02T18:57:07.270Z,2.05
2023-03-02T18:59:35.748Z,2.21
2023-03-02T19:02:05.566Z,2.14
2023-03-02T19:04:33.250Z,2.17
2023-03-02T19:07:02.872Z,2.14
2023-03-02T19:09:30.610Z,2.16
2023-03-02T19:12:00.044Z,2.14
2023-03-02T19:14:27.898Z,2.19
2023-03-02T19:16:55.509Z,2.26
2023-03-02T19:19:23.342Z,2.15
2023-03-02T19:21:51.114Z,2.25
2023-03-02T19:24:18.951Z,2.14
2023-03-02T19:26:46.927Z,2.17
2023-03-02T19:29:16.223Z,2.30
2023-03-02T19:31:43.908Z,2.41
2023-03-02T19:34:14.657Z,2.42
2023-03-02T19:36:45.608Z,2.35
2023-03-02T19:39:13.698Z,2.34
2023-03-02T19:41:41.615Z,2.30
2023-03-02T19:44:09.779Z,2.21
2023-03-02T19:46:38.844Z,2.32
2023-03-02T19:49:06.698Z,2.25
2023-03-02T19:51:34.296Z,2.33
2023-03-02T19:54:04.046Z,2.35
2023-03-02T19:56:34.961Z,2.25
2023-03-02T19:59:03.261Z,2.11
2023-03-02T20:01:31.509Z,2.14
2023-03-02T20:04:01.319Z,2.17
2023-03-02T20:06:32.123Z,2.27
2023-03-02T20:09:01.144Z,2.31
2023-03-02T20:11:30.786Z,2.33
2023-03-02T20:14:02.236Z,2.36
2023-03-02T20:16:30.608Z,2.40
2023-03-02T20:19:00.784Z,2.34
2023-03-02T20:21:28.473Z,2.25
2023-03-02T20:23:56.211Z,2.36
2023-03-02T20:26:27.515Z,2.41
2023-03-02T20:28:57.805Z,2.41
2023-03-02T20:31:25.708Z,2.43
2023-03-02T20:33:55.774Z,2.37
2023-03-02T20:36:27.279Z,2.40
2023-03-02T20:38:58.482Z,2.40
2023-03-02T20:41:26.320Z,2.35
2023-03-02T20:43:54.111Z,2.39
2023-03-02T20:46:24.841Z,2.23
2023-03-02T20:48:53.076Z,2.14
2023-03-02T20:51:21.493Z,2.08
2023-03-02T20:53:51.023Z,2.08
2023-03-02T20:56:19.212Z,1.96
2023-03-02T20:58:47.364Z,2.08
2023-03-02T21:01:16.668Z,2.09
2023-03-02T21:03:45.086Z,2.03
2023-03-02T21:06:13.948Z,2.00
2023-03-02T21:08:42.140Z,1.91
2023-03-02T21:11:13.542Z,2.03
2023-03-02T21:13:41.934Z,2.03
2023-03-02T21:16:09.924Z,1.98
2023-03-02T21:18:37.593Z,1.96
2023-03-02T21:21:05.654Z,2.00
2023-03-02T21:23:33.326Z,1.96
2023-03-02T21:26:00.969Z,1.81
2023-03-02T21:28:30.049Z,1.93
2023-03-02T21:30:57.730Z,2.01
2023-03-02T21:33:25.746Z,1.88
2023-03-02T21:35:53.372Z,1.87
2023-03-02T21:38:21.044Z,1.96
2023-03-02T21:40:48.657Z,1.93
2023-03-02T21:43:16.848Z,1.96
2023-03-02T21:45:45.922Z,1.92
2023-03-02T21:48:14.160Z,1.92
2023-03-02T21:50:42.206Z,1.94
2023-03-02T21:53:10.289Z,1.85
2023-03-02T21:55:38.080Z,1.65
2023-03-02T21:58:06.173Z,1.57
2023-03-02T22:00:37.002Z,1.51
2023-03-02T22:03:06.788Z,1.50
2023-03-02T22:05:35.030Z,1.55
2023-03-02T22:08:02.656Z,1.52
2023-03-02T22:10:33.136Z,1.55
2023-03-02T22:13:14.592Z,1.54
2023-03-02T22:15:42.565Z,1.48
2023-03-02T22:18:12.682Z,1.60
2023-03-02T22:20:41.644Z,1.57
2023-03-02T22:23:12.737Z,1.57
2023-03-02T22:25:40.900Z,1.69
2023-03-02T22:28:16.440Z,1.57
2023-03-02T22:30:44.236Z,1.66
2023-03-02T22:33:19.920Z,1.57
2023-03-02T22:35:48.197Z,1.55
2023-03-02T22:38:21.371Z,1.57
2023-03-02T22:40:49.020Z,1.52
2023-03-02T22:43:21.888Z,1.55
2023-03-02T22:45:49.704Z,1.54
2023-03-02T22:48:20.784Z,1.61
2023-03-02T22:50:51.376Z,1.38
2023-03-02T22:53:25.082Z,1.38
2023-03-02T22:55:56.840Z,1.43
2023-03-02T22:58:33.751Z,1.52
2023-03-02T23:01:02.823Z,1.46
2023-03-02T23:03:38.373Z,1.30
2023-03-02T23:06:18.447Z,1.48
2023-03-02T23:08:46.199Z,1.20
2023-03-02T23:11:16.845Z,1.36
2023-03-02T23:13:44.703Z,1.50
2023-03-02T23:16:20.896Z,1.49
2023-03-02T23:18:50.089Z,1.60
2023-03-02T23:21:23.592Z,1.52
2023-03-02T23:23:51.892Z,1.51
2023-03-02T23:26:20.247Z,1.60
2023-03-02T23:28:48.975Z,1.48
2023-03-02T23:31:18.397Z,1.60
2023-03-02T23:33:46.653Z,1.57
2023-03-02T23:36:16.389Z,1.59
2023-03-02T23:38:44.180Z,1.51
2023-03-02T23:41:11.845Z,1.66
2023-03-02T23:43:39.611Z,1.72
2023-03-02T23:46:07.629Z,1.59
2023-03-02T23:48:35.412Z,1.66
2023-03-02T23:51:03.173Z,1.58
2023-03-02T23:53:32.302Z,1.76
2023-03-02T23:56:00.307Z,1.65
2023-03-02T23:58:28.010Z,1.67
